Time;durP1;ratioP1;P1;durP2;ratioP2;P2;SDS_P1;SDS_P2;PMS_P1;PMS_P2;Temp;Humidity;BMP_temperature;BMP_pressure;BME280_temperature;BME280_humidity;BME280_pressure;Samples;Min_cycle;Max_cycle;Signal;HPM_P1;HPM_P2
2021/06/28 00:00:00;;;;;;;10.52;7.03;;;18.80;99.90;;;;;;5076977;28;20314;-80
2021/06/28 00:02:29;;;;;;;8.45;7.68;;;18.90;99.90;;;;;;5096644;28;20276;-80
2021/06/28 00:04:55;;;;;;;10.90;9.85;;;19.00;99.90;;;;;;5096306;28;20224;-81
2021/06/28 00:07:21;;;;;;;12.50;10.15;;;19.00;99.90;;;;;;5096800;28;20261;-81
2021/06/28 00:09:47;;;;;;;10.13;8.98;;;19.00;99.90;;;;;;5078192;28;20336;-81
2021/06/28 00:12:13;;;;;;;7.55;6.85;;;19.00;99.90;;;;;;5094560;28;20683;-80
2021/06/28 00:14:38;;;;;;;15.98;6.22;;;19.00;99.90;;;;;;5077960;28;20268;-80
2021/06/28 00:17:04;;;;;;;7.05;6.30;;;19.00;99.90;;;;;;5096878;28;20618;-81
2021/06/28 00:19:30;;;;;;;7.32;5.90;;;19.00;99.90;;;;;;5078358;28;20504;-80
2021/06/28 00:21:56;;;;;;;13.35;7.78;;;19.00;99.90;;;;;;5095528;28;20173;-81
2021/06/28 00:24:21;;;;;;;14.95;7.90;;;19.00;99.90;;;;;;5077895;28;20184;-81
2021/06/28 00:26:47;;;;;;;8.20;7.35;;;19.00;99.90;;;;;;5078234;28;20182;-80
2021/06/28 00:29:13;;;;;;;8.18;6.57;;;19.10;99.90;;;;;;5096313;28;20162;-80
2021/06/28 00:31:39;;;;;;;8.25;7.55;;;19.00;99.90;;;;;;5075891;28;20162;-80
2021/06/28 00:34:05;;;;;;;15.27;9.40;;;18.90;99.90;;;;;;5084832;28;20186;-81
2021/06/28 00:36:31;;;;;;;15.52;10.10;;;18.90;99.90;;;;;;5075720;28;20562;-80
2021/06/28 00:38:57;;;;;;;7.90;7.40;;;18.90;99.90;;;;;;5041342;28;20171;-80
2021/06/28 00:41:23;;;;;;;9.43;8.23;;;18.80;99.90;;;;;;5041566;28;20535;-81
2021/06/28 00:43:48;;;;;;;8.20;7.60;;;18.80;99.90;;;;;;5076479;28;20702;-81
2021/06/28 00:46:14;;;;;;;13.15;9.80;;;18.80;99.90;;;;;;5096098;28;20202;-81
2021/06/28 00:48:40;;;;;;;10.77;9.57;;;18.80;99.90;;;;;;5095137;28;20618;-80
2021/06/28 00:51:05;;;;;;;10.48;9.45;;;18.80;99.90;;;;;;5077580;28;20538;-81
2021/06/28 00:53:31;;;;;;;9.70;8.88;;;18.90;99.90;;;;;;5057389;28;20175;-81
2021/06/28 00:56:09;;;;;;;11.55;9.75;;;19.00;99.90;;;;;;5075724;28;20179;-81
2021/06/28 00:58:43;;;;;;;13.27;9.52;;;18.90;99.90;;;;;;5042729;28;20680;-81
2021/06/28 01:01:11;;;;;;;9.30;7.35;;;18.80;99.90;;;;;;5065585;28;20623;-80
2021/06/28 01:03:37;;;;;;;9.05;8.20;;;18.80;99.90;;;;;;5077102;28;20181;-80
2021/06/28 01:06:03;;;;;;;8.45;6.72;;;18.90;99.90;;;;;;5095339;28;20201;-80
2021/06/28 01:08:29;;;;;;;20.42;11.48;;;18.90;99.90;;;;;;5076761;28;20267;-81
2021/06/28 01:10:55;;;;;;;10.90;9.95;;;18.80;99.90;;;;;;5090908;28;20179;-81
2021/06/28 01:13:21;;;;;;;12.60;11.40;;;18.80;99.90;;;;;;5083795;28;20171;-80
2021/06/28 01:15:48;;;;;;;17.80;12.90;;;18.70;99.90;;;;;;5095535;28;20167;-81
2021/06/28 01:18:14;;;;;;;15.27;12.35;;;18.70;99.90;;;;;;5076980;28;20260;-82
2021/06/28 01:20:40;;;;;;;20.77;13.05;;;18.70;99.90;;;;;;5057394;28;20596;-80
2021/06/28 01:23:24;;;;;;;21.83;13.15;;;18.60;99.90;;;;;;5046695;28;20194;-80
2021/06/28 01:25:54;;;;;;;17.80;13.65;;;18.70;99.90;;;;;;5077328;28;20197;-81
2021/06/28 01:28:19;;;;;;;17.45;14.60;;;18.60;99.90;;;;;;5095293;28;20219;-81
2021/06/28 01:30:46;;;;;;;20.17;13.88;;;18.70;99.90;;;;;;5059048;28;20167;-80
2021/06/28 01:33:12;;;;;;;21.65;14.88;;;18.80;99.90;;;;;;5063500;28;20618;-80
2021/06/28 01:35:40;;;;;;;17.63;13.98;;;18.80;99.90;;;;;;5076951;28;20271;-80
2021/06/28 01:38:06;;;;;;;15.20;13.57;;;18.90;99.90;;;;;;5058377;28;20183;-80
2021/06/28 01:40:32;;;;;;;22.40;15.07;;;18.90;99.90;;;;;;5074741;28;20167;-81
2021/06/28 01:42:58;;;;;;;28.88;14.55;;;18.90;99.90;;;;;;5079255;28;20166;-79
2021/06/28 01:45:24;;;;;;;19.70;13.73;;;18.90;99.90;;;;;;5076551;28;20205;-80
2021/06/28 01:47:54;;;;;;;21.40;14.30;;;19.00;99.90;;;;;;5056293;28;20216;-79
2021/06/28 01:50:22;;;;;;;18.00;13.60;;;19.10;99.90;;;;;;5062995;28;20158;-80
2021/06/28 01:52:48;;;;;;;17.60;13.32;;;19.10;99.90;;;;;;5094270;28;20662;-80
2021/06/28 01:55:16;;;;;;;17.85;12.73;;;19.10;99.90;;;;;;5094580;28;20178;-80
2021/06/28 01:57:47;;;;;;;19.70;12.70;;;19.00;99.90;;;;;;5093985;28;20184;-79
2021/06/28 02:00:17;;;;;;;16.02;11.95;;;18.90;99.90;;;;;;5076219;28;20610;-80
2021/06/28 02:03:03;;;;;;;20.63;13.73;;;18.90;99.90;;;;;;5094062;28;20170;-80
2021/06/28 02:05:32;;;;;;;13.52;12.13;;;18.80;99.90;;;;;;5094282;28;20673;-79
2021/06/28 02:07:59;;;;;;;15.50;11.57;;;18.80;99.90;;;;;;5093775;28;20286;-80
2021/06/28 02:10:25;;;;;;;17.70;11.85;;;18.70;99.90;;;;;;5094212;28;20249;-80
2021/06/28 02:12:51;;;;;;;14.50;11.75;;;18.70;99.90;;;;;;5094244;28;20251;-80
2021/06/28 02:15:19;;;;;;;16.83;11.65;;;18.60;99.90;;;;;;5076085;28;20209;-80
2021/06/28 02:17:44;;;;;;;15.43;12.15;;;18.60;99.90;;;;;;5078468;28;20175;-80
2021/06/28 02:20:10;;;;;;;23.02;12.90;;;18.60;99.90;;;;;;5056175;28;20513;-80
2021/06/28 02:22:40;;;;;;;16.70;12.75;;;18.60;99.90;;;;;;5060187;28;20545;-80
2021/06/28 02:25:07;;;;;;;19.70;13.98;;;18.70;99.90;;;;;;5094113;28;20610;-80
2021/06/28 02:27:33;;;;;;;15.10;12.32;;;18.70;99.90;;;;;;5080071;28;20488;-80
2021/06/28 02:29:58;;;;;;;49.70;13.27;;;18.70;99.90;;;;;;5056115;28;20529;-80
2021/06/28 02:32:24;;;;;;;18.75;10.63;;;18.60;99.90;;;;;;5058205;28;20171;-80
2021/06/28 02:34:50;;;;;;;17.45;10.13;;;18.60;99.90;;;;;;5075749;28;20174;-80
2021/06/28 02:37:15;;;;;;;11.25;9.63;;;18.50;99.90;;;;;;5050280;28;20539;-80
2021/06/28 02:39:41;;;;;;;11.30;10.23;;;18.50;99.90;;;;;;5073803;28;20177;-80
2021/06/28 02:42:07;;;;;;;12.02;9.82;;;18.50;99.90;;;;;;5055532;28;20177;-80
2021/06/28 02:44:33;;;;;;;11.25;10.10;;;18.60;99.90;;;;;;5107534;28;20563;-81
2021/06/28 02:46:58;;;;;;;10.98;9.90;;;18.60;99.90;;;;;;5093050;28;20543;-80
2021/06/28 02:49:24;;;;;;;15.82;11.57;;;18.60;99.90;;;;;;5075593;28;20162;-80
2021/06/28 02:51:50;;;;;;;82.63;12.90;;;18.60;99.90;;;;;;5075775;28;20251;-80
2021/06/28 02:54:16;;;;;;;11.88;10.55;;;18.70;99.90;;;;;;5093102;28;20641;-80
2021/06/28 02:56:42;;;;;;;19.73;11.68;;;18.70;99.90;;;;;;5093116;28;20166;-80
2021/06/28 02:59:11;;;;;;;12.27;11.07;;;18.70;99.90;;;;;;5075037;28;20517;-80
2021/06/28 03:01:36;;;;;;;10.75;9.75;;;18.60;99.90;;;;;;5076333;28;20166;-80
2021/06/28 03:04:03;;;;;;;10.52;9.52;;;18.70;99.90;;;;;;5074898;28;20637;-80
2021/06/28 03:06:28;;;;;;;11.00;10.00;;;18.70;99.90;;;;;;5074544;28;20189;-80
2021/06/28 03:08:54;;;;;;;15.07;10.98;;;18.70;99.90;;;;;;5093232;28;20181;-80
2021/06/28 03:11:22;;;;;;;11.55;10.45;;;18.70;99.90;;;;;;5092945;28;20170;-80
2021/06/28 03:13:48;;;;;;;15.02;11.10;;;18.70;99.90;;;;;;5093141;28;20174;-80
2021/06/28 03:16:15;;;;;;;18.20;10.52;;;18.70;99.90;;;;;;5091388;28;20213;-80
2021/06/28 03:18:41;;;;;;;12.32;10.82;;;18.70;99.90;;;;;;5055186;28;20631;-80
2021/06/28 03:21:07;;;;;;;12.65;10.77;;;18.70;99.90;;;;;;5055132;28;20221;-81
2021/06/28 03:23:34;;;;;;;16.30;10.10;;;18.70;99.90;;;;;;5049495;28;20175;-80
2021/06/28 03:26:00;;;;;;;13.02;10.77;;;18.70;99.90;;;;;;5084973;28;20201;-81
2021/06/28 03:28:26;;;;;;;20.75;12.07;;;18.80;99.90;;;;;;5055688;28;20177;-80
2021/06/28 03:30:52;;;;;;;9.82;9.00;;;18.80;99.90;;;;;;5072983;28;20167;-80
2021/06/28 03:33:18;;;;;;;12.75;9.20;;;18.80;99.90;;;;;;5046927;28;20528;-81
2021/06/28 03:35:44;;;;;;;11.32;9.80;;;18.80;99.90;;;;;;5079114;28;20179;-80
2021/06/28 03:38:10;;;;;;;10.13;9.32;;;18.70;99.90;;;;;;5092329;28;20178;-80
2021/06/28 03:40:36;;;;;;;11.10;9.80;;;18.70;99.90;;;;;;5093547;28;20187;-81
2021/06/28 03:43:08;;;;;;;25.33;11.45;;;18.70;99.90;;;;;;5092950;28;20175;-80
2021/06/28 03:45:35;;;;;;;11.75;9.15;;;18.80;99.90;;;;;;5093145;28;20197;-80
2021/06/28 03:48:01;;;;;;;12.18;9.45;;;18.80;99.90;;;;;;5074194;28;20178;-80
2021/06/28 03:50:26;;;;;;;10.23;9.20;;;18.80;99.90;;;;;;5074764;28;20218;-80
2021/06/28 03:52:52;;;;;;;11.07;9.80;;;18.70;99.90;;;;;;5073498;28;20644;-80
2021/06/28 03:55:18;;;;;;;10.75;9.60;;;18.80;99.90;;;;;;5074333;28;20193;-80
2021/06/28 03:57:44;;;;;;;11.20;8.57;;;18.80;99.90;;;;;;5075032;28;20211;-80
2021/06/28 04:00:19;;;;;;;15.30;10.65;;;18.80;99.90;;;;;;5093034;28;20176;-80
2021/06/28 04:02:45;;;;;;;17.70;12.77;;;18.90;99.90;;;;;;5092337;28;20305;-80
2021/06/28 04:05:19;;;;;;;21.83;11.75;;;19.00;99.90;;;;;;5092006;28;20209;-80
2021/06/28 04:07:45;;;;;;;17.52;13.55;;;19.10;99.90;;;;;;5074965;28;20173;-80
2021/06/28 04:10:13;;;;;;;19.63;12.45;;;19.10;99.90;;;;;;5074918;28;20253;-80
2021/06/28 04:12:38;;;;;;;11.85;10.65;;;19.20;99.90;;;;;;5092541;28;20158;-80
2021/06/28 04:15:09;;;;;;;10.18;9.15;;;19.20;99.90;;;;;;5067886;28;20550;-80
2021/06/28 04:17:39;;;;;;;12.88;8.88;;;19.20;99.90;;;;;;5087624;28;20196;-80
2021/06/28 04:20:07;;;;;;;11.98;8.13;;;19.20;99.90;;;;;;5092637;28;20211;-80
2021/06/28 04:22:34;;;;;;;13.43;8.38;;;19.30;99.90;;;;;;5092487;28;20299;-80
2021/06/28 04:24:59;;;;;;;9.65;7.25;;;19.30;99.90;;;;;;5076923;28;20624;-80
2021/06/28 04:27:25;;;;;;;8.10;7.40;;;19.40;99.90;;;;;;5095842;28;20206;-81
2021/06/28 04:29:51;;;;;;;9.70;7.13;;;19.40;99.90;;;;;;5078383;28;20261;-81
2021/06/28 04:32:17;;;;;;;12.25;7.68;;;19.50;99.90;;;;;;5061053;28;20507;-80
2021/06/28 04:34:46;;;;;;;12.27;7.78;;;19.60;99.90;;;;;;5061366;28;20618;-81
2021/06/28 04:37:12;;;;;;;11.68;9.63;;;19.90;99.90;;;;;;5078138;28;20571;-80
2021/06/28 04:39:39;;;;;;;8.85;8.13;;;20.10;99.90;;;;;;5096098;28;20683;-82
2021/06/28 04:42:05;;;;;;;12.63;8.82;;;20.60;99.90;;;;;;5095208;28;20170;-80
2021/06/28 04:44:31;;;;;;;8.30;7.45;;;21.30;99.90;;;;;;5095999;28;20197;-82
2021/06/28 04:46:57;;;;;;;12.45;5.45;;;21.80;99.90;;;;;;5095833;28;20174;-81
2021/06/28 04:49:22;;;;;;;7.85;7.15;;;21.90;99.90;;;;;;5061278;28;20176;-81
2021/06/28 04:51:48;;;;;;;6.25;5.75;;;21.80;99.90;;;;;;5061042;28;20559;-81
2021/06/28 04:54:13;;;;;;;7.05;6.32;;;21.70;99.90;;;;;;5095782;28;20535;-80
2021/06/28 04:56:39;;;;;;;6.45;5.88;;;21.60;99.90;;;;;;5059530;28;20648;-81
2021/06/28 04:59:05;;;;;;;6.05;5.60;;;21.60;99.90;;;;;;5076697;28;20174;-81
2021/06/28 05:01:30;;;;;;;7.10;6.15;;;21.50;99.90;;;;;;5095538;28;20249;-81
2021/06/28 05:03:56;;;;;;;9.68;6.97;;;21.60;99.90;;;;;;5095316;28;20188;-80
2021/06/28 05:06:22;;;;;;;7.22;6.63;;;21.70;99.90;;;;;;5095751;28;20219;-81
2021/06/28 05:08:47;;;;;;;6.40;5.82;;;21.80;99.90;;;;;;5060921;28;20619;-81
2021/06/28 05:11:13;;;;;;;7.82;5.53;;;22.00;99.90;;;;;;5095626;28;20626;-80
2021/06/28 05:13:39;;;;;;;10.98;6.65;;;21.90;99.90;;;;;;5095127;28;20174;-82
2021/06/28 05:16:04;;;;;;;6.45;5.95;;;21.90;99.90;;;;;;5056710;28;20248;-81
2021/06/28 05:18:30;;;;;;;6.28;5.78;;;21.80;99.90;;;;;;5057307;28;20174;-81
2021/06/28 05:20:56;;;;;;;5.43;4.93;;;21.80;99.90;;;;;;5075144;28;20169;-80
2021/06/28 05:23:21;;;;;;;6.30;5.20;;;21.70;99.90;;;;;;5077366;28;20579;-79
2021/06/28 05:25:47;;;;;;;5.43;5.03;;;21.60;99.90;;;;;;5095052;28;20582;-78
2021/06/28 05:28:13;;;;;;;7.20;5.72;;;21.70;99.90;;;;;;5095206;28;20215;-79
2021/06/28 05:30:39;;;;;;;12.82;6.22;;;21.80;99.90;;;;;;5076917;28;20173;-79
2021/06/28 05:33:05;;;;;;;5.53;5.03;;;21.90;99.90;;;;;;5076653;28;20185;-79
2021/06/28 05:35:30;;;;;;;5.40;4.40;;;21.90;99.90;;;;;;5076041;28;20711;-79
2021/06/28 05:37:56;;;;;;;7.78;5.18;;;21.70;99.90;;;;;;5074198;28;20223;-79
2021/06/28 05:40:22;;;;;;;6.25;5.10;;;21.60;99.90;;;;;;5095325;28;20170;-78
2021/06/28 05:42:48;;;;;;;7.85;6.00;;;21.60;99.90;;;;;;5094498;28;20170;-79
2021/06/28 05:45:14;;;;;;;14.00;6.07;;;21.60;99.90;;;;;;5076955;28;20616;-79
2021/06/28 05:47:40;;;;;;;9.00;7.47;;;21.80;99.90;;;;;;5095053;28;20166;-81
2021/06/28 05:50:08;;;;;;;7.55;6.95;;;22.00;99.90;;;;;;5076930;28;20181;-81
2021/06/28 05:52:34;;;;;;;11.80;7.78;;;22.10;99.90;;;;;;5076290;28;20618;-82
2021/06/28 05:55:00;;;;;;;8.63;7.20;;;22.10;99.90;;;;;;5076610;28;20199;-82
2021/06/28 05:57:26;;;;;;;7.75;7.13;;;22.00;99.90;;;;;;5093619;28;20174;-82
2021/06/28 05:59:54;;;;;;;8.15;7.55;;;22.30;99.90;;;;;;5076161;28;20179;-81
2021/06/28 06:02:20;;;;;;;8.13;7.40;;;22.60;99.90;;;;;;5076137;28;20173;-82
2021/06/28 06:04:46;;;;;;;9.02;7.65;;;22.90;99.90;;;;;;5076106;28;20206;-79
2021/06/28 06:07:12;;;;;;;7.13;6.50;;;23.30;99.90;;;;;;5094708;28;20231;-81
2021/06/28 06:09:38;;;;;;;8.38;7.18;;;23.50;99.90;;;;;;5076133;28;20178;-82
2021/06/28 06:12:04;;;;;;;18.40;6.93;;;23.90;99.90;;;;;;5093906;28;20179;-82
2021/06/28 06:14:30;;;;;;;11.57;7.00;;;24.50;99.90;;;;;;5076810;28;20518;-83
2021/06/28 06:16:56;;;;;;;15.65;7.65;;;25.20;99.90;;;;;;5076250;28;20177;-82
2021/06/28 06:19:21;;;;;;;13.30;6.65;;;26.00;99.90;;;;;;5059673;28;20219;-82
2021/06/28 06:21:47;;;;;;;8.57;6.47;;;27.20;99.90;;;;;;5071336;28;20175;-82
2021/06/28 06:24:13;;;;;;;7.65;6.93;;;27.50;99.90;;;;;;5075764;28;20658;-82
2021/06/28 06:26:39;;;;;;;6.72;6.13;;;27.70;99.90;;;;;;5093834;28;20208;-83
2021/06/28 06:29:05;;;;;;;7.40;6.68;;;27.70;99.90;;;;;;5094468;28;20223;-80
2021/06/28 06:31:31;;;;;;;6.93;6.30;;;27.70;99.90;;;;;;5059662;28;20178;-80
2021/06/28 06:33:56;;;;;;;7.72;6.05;;;28.10;99.90;;;;;;5093699;28;20186;-80
2021/06/28 06:36:22;;;;;;;16.80;5.47;;;28.70;99.90;;;;;;5093951;28;20174;-81
2021/06/28 06:38:48;;;;;;;8.00;5.50;;;29.60;99.90;;;;;;5075867;28;20177;-80
2021/06/28 06:41:14;;;;;;;7.80;5.32;;;30.70;99.90;;;;;;5093668;28;20170;-80
2021/06/28 06:43:40;;;;;;;7.72;5.10;;;31.80;99.90;;;;;;5093770;28;20182;-81
2021/06/28 06:46:06;;;;;;;7.78;5.30;;;32.20;99.90;;;;;;5075155;28;20274;-83
2021/06/28 06:48:31;;;;;;;11.20;5.68;;;31.60;99.90;;;;;;5049834;28;20182;-80
2021/06/28 06:50:57;;;;;;;6.68;5.15;;;30.90;99.90;;;;;;5055603;28;20158;-80
2021/06/28 06:53:23;;;;;;;5.65;5.15;;;30.60;99.90;;;;;;5069952;28;20184;-80
2021/06/28 06:55:49;;;;;;;8.80;5.70;;;30.80;99.90;;;;;;5075021;28;20192;-80
2021/06/28 06:58:14;;;;;;;10.07;5.90;;;31.30;99.90;;;;;;5075537;28;20834;-80
2021/06/28 07:00:41;;;;;;;6.78;5.72;;;30.90;99.90;;;;;;5075531;28;20169;-81
2021/06/28 07:03:08;;;;;;;6.32;5.72;;;30.30;99.90;;;;;;5082269;28;20190;-80
2021/06/28 07:05:34;;;;;;;6.63;5.60;;;29.90;99.90;;;;;;5073299;28;20390;-80
2021/06/28 07:08:01;;;;;;;8.25;5.80;;;29.70;99.90;;;;;;5038676;28;20198;-81
2021/06/28 07:10:27;;;;;;;8.15;4.85;;;29.50;99.90;;;;;;5073208;28;20196;-84
2021/06/28 07:12:53;;;;;;;8.20;5.40;;;29.20;99.90;;;;;;5065007;28;20170;-82
2021/06/28 07:15:21;;;;;;;5.72;5.22;;;28.70;99.90;;;;;;5075198;28;20204;-84
2021/06/28 07:17:48;;;;;;;6.07;5.68;;;28.30;99.90;;;;;;5073549;28;20178;-81
2021/06/28 07:20:18;;;;;;;6.80;6.07;;;27.90;99.90;;;;;;5082517;28;20257;-79
2021/06/28 07:22:44;;;;;;;6.72;6.03;;;27.60;99.90;;;;;;5092938;28;20178;-80
2021/06/28 07:25:12;;;;;;;7.63;6.72;;;27.30;99.90;;;;;;5074405;28;20239;-81
2021/06/28 07:27:38;;;;;;;11.35;6.40;;;27.00;99.90;;;;;;5093525;28;20178;-79
2021/06/28 07:30:09;;;;;;;6.47;5.45;;;26.70;99.90;;;;;;5075118;28;20640;-79
2021/06/28 07:32:36;;;;;;;8.23;6.20;;;26.40;99.90;;;;;;5074875;28;20194;-79
2021/06/28 07:35:03;;;;;;;6.78;6.28;;;26.20;99.90;;;;;;5075146;28;20178;-81
2021/06/28 07:37:28;;;;;;;13.95;7.53;;;26.10;99.90;;;;;;5074894;28;20532;-80
2021/06/28 07:39:54;;;;;;;10.98;7.00;;;26.00;99.90;;;;;;5093447;28;20166;-80
2021/06/28 07:42:20;;;;;;;7.68;6.97;;;25.90;99.90;;;;;;5089236;28;20174;-82
2021/06/28 07:44:46;;;;;;;8.98;6.63;;;25.80;99.90;;;;;;5071346;28;20225;-82
2021/06/28 07:47:12;;;;;;;8.45;6.05;;;25.70;99.90;;;;;;5038336;28;20543;-82
2021/06/28 07:49:37;;;;;;;10.48;8.00;;;25.50;99.90;;;;;;5038439;28;20162;-82
2021/06/28 07:52:03;;;;;;;8.38;7.47;;;25.30;99.90;;;;;;5038816;28;20174;-83
2021/06/28 07:54:30;;;;;;;7.90;7.13;;;25.00;99.90;;;;;;5073363;28;20167;-83
2021/06/28 07:56:55;;;;;;;7.90;7.18;;;24.80;99.90;;;;;;5073377;28;20171;-83
2021/06/28 07:59:21;;;;;;;8.80;7.72;;;24.50;99.90;;;;;;5076125;28;20155;-84
2021/06/28 08:02:05;;;;;;;6.93;6.20;;;24.20;99.90;;;;;;5059495;28;20166;-83
2021/06/28 08:15:38;;;;;;;11.35;7.75;;;24.40;99.90;;;;;;5076939;28;20187;-83
2021/06/28 08:18:03;;;;;;;8.85;7.95;;;24.30;99.90;;;;;;5088807;28;20615;-84
2021/06/28 08:20:34;;;;;;;16.65;9.13;;;24.10;99.90;;;;;;5078929;28;20181;-87
2021/06/28 08:22:59;;;;;;;9.85;9.05;;;24.10;99.90;;;;;;5062204;28;20173;-86
2021/06/28 08:25:25;;;;;;;9.15;8.30;;;24.10;99.90;;;;;;5061469;28;20201;-82
2021/06/28 08:27:51;;;;;;;7.53;6.93;;;24.20;99.90;;;;;;5078042;28;20166;-83
2021/06/28 08:30:18;;;;;;;9.80;7.38;;;24.10;99.90;;;;;;5112149;28;20181;-84
2021/06/28 08:32:43;;;;;;;8.80;6.82;;;24.00;99.90;;;;;;5078006;28;20177;-85
2021/06/28 08:35:10;;;;;;;8.10;6.88;;;24.00;99.90;;;;;;5061699;28;20174;-84
2021/06/28 08:37:36;;;;;;;9.93;6.63;;;24.00;99.90;;;;;;5096416;28;20250;-84
2021/06/28 08:40:03;;;;;;;9.52;6.03;;;24.30;99.90;;;;;;5111063;28;20197;-85
2021/06/28 08:42:29;;;;;;;7.07;6.15;;;24.50;99.90;;;;;;5078242;28;20170;-85
2021/06/28 08:44:55;;;;;;;11.05;6.47;;;24.60;99.90;;;;;;5077689;28;20210;-86
2021/06/28 08:47:22;;;;;;;9.88;6.65;;;24.80;99.90;;;;;;5077837;28;20174;-85
2021/06/28 08:49:48;;;;;;;6.47;5.97;;;25.20;99.90;;;;;;5077725;28;20174;-85
2021/06/28 08:52:15;;;;;;;8.82;6.20;;;25.50;99.90;;;;;;5078025;28;20274;-89
2021/06/28 08:54:40;;;;;;;7.07;5.88;;;25.70;99.90;;;;;;5097203;28;20162;-89
2021/06/28 08:57:06;;;;;;;6.22;5.07;;;25.80;99.90;;;;;;5096301;28;20256;-85
2021/06/28 08:59:32;;;;;;;5.95;4.70;;;25.60;99.90;;;;;;5072126;28;20248;-89
2021/06/28 09:01:58;;;;;;;9.60;3.92;;;25.50;99.90;;;;;;5042302;28;20241;-88
2021/06/28 09:04:24;;;;;;;4.50;3.85;;;25.30;99.90;;;;;;5058690;28;20173;-89
2021/06/28 09:06:50;;;;;;;4.32;3.92;;;25.10;99.90;;;;;;5058228;28;20214;-88
2021/06/28 09:09:16;;;;;;;6.07;3.70;;;24.90;99.90;;;;;;5041506;28;20224;-87
2021/06/28 09:11:48;;;;;;;4.63;3.63;;;24.80;99.90;;;;;;5076143;28;20175;-87
2021/06/28 09:14:15;;;;;;;4.97;4.20;;;24.60;99.90;;;;;;5058034;28;20174;-88
2021/06/28 09:16:43;;;;;;;4.65;4.25;;;24.50;99.90;;;;;;5076302;28;20185;-88
2021/06/28 09:19:21;;;;;;;4.53;4.07;;;24.40;99.90;;;;;;5058233;28;20216;-89
2021/06/28 09:21:57;;;;;;;4.25;3.63;;;24.50;99.90;;;;;;5069272;28;20174;-89
2021/06/28 09:24:30;;;;;;;7.13;3.58;;;24.50;99.90;;;;;;5096109;28;20156;-86
2021/06/28 09:27:20;;;;;;;5.25;3.55;;;24.40;99.90;;;;;;5096240;28;20212;-87
2021/06/28 09:29:54;;;;;;;11.55;3.08;;;24.30;99.90;;;;;;5078026;28;20220;-86
2021/06/28 09:32:21;;;;;;;7.47;3.50;;;24.30;99.90;;;;;;5077607;28;20194;-85
2021/06/28 09:34:50;;;;;;;8.27;3.67;;;24.40;99.90;;;;;;5095689;28;20163;-80
2021/06/28 09:37:21;;;;;;;6.75;4.10;;;24.60;99.90;;;;;;5090838;28;20633;-82
2021/06/28 09:39:49;;;;;;;4.50;3.47;;;24.80;99.90;;;;;;5076814;28;20170;-82
2021/06/28 09:42:17;;;;;;;6.65;4.57;;;25.10;99.90;;;;;;5076710;28;20176;-84
2021/06/28 09:45:14;;;;;;;8.68;4.32;;;25.60;99.90;;;;;;5076810;28;20171;-83
2021/06/28 09:47:40;;;;;;;6.00;3.67;;;26.00;99.90;;;;;;5076606;28;20643;-85
2021/06/28 09:50:17;;;;;;;5.20;3.67;;;26.30;99.90;;;;;;5094921;28;20248;-85
2021/06/28 09:52:47;;;;;;;8.13;3.42;;;26.50;99.90;;;;;;5077009;28;20174;-90
2021/06/28 09:55:22;;;;;;;14.35;4.03;;;26.50;99.90;;;;;;5077299;28;20170;-87
2021/06/28 09:58:11;;;;;;;4.65;3.67;;;26.30;99.90;;;;;;5075925;28;20180;-86
2021/06/28 10:00:49;;;;;;;7.22;3.95;;;26.10;99.90;;;;;;5094685;28;20189;-92
2021/06/28 10:03:46;;;;;;;8.63;4.70;;;26.10;99.90;;;;;;5056829;28;20163;-89
2021/06/28 10:08:44;;;;;;;14.80;5.20;;;25.70;99.90;;;;;;5074694;28;20183;-90
2021/06/28 10:11:20;;;;;;;15.30;5.43;;;25.40;99.90;;;;;;5060414;28;20171;-88
2021/06/28 10:13:54;;;;;;;7.25;4.90;;;25.30;99.90;;;;;;5076423;28;20194;-89
2021/06/28 10:16:24;;;;;;;11.60;5.32;;;25.40;99.90;;;;;;5076704;28;20169;-86
2021/06/28 10:18:57;;;;;;;9.95;4.75;;;25.70;99.90;;;;;;5060009;28;20229;-87
2021/06/28 10:21:24;;;;;;;9.85;4.50;;;26.00;99.90;;;;;;5075014;28;20653;-86
2021/06/28 10:23:51;;;;;;;15.77;6.40;;;26.30;99.90;;;;;;5076232;28;20169;-85
2021/06/28 10:26:16;;;;;;;9.43;4.78;;;26.60;99.90;;;;;;5059555;28;20607;-84
2021/06/28 10:28:43;;;;;;;6.88;5.15;;;26.70;99.90;;;;;;5056804;28;20178;-84
2021/06/28 10:31:10;;;;;;;8.43;4.72;;;26.60;99.90;;;;;;5113566;28;20178;-82
2021/06/28 10:33:38;;;;;;;12.10;4.47;;;26.40;99.90;;;;;;5095736;28;20260;-82
2021/06/28 10:36:13;;;;;;;7.53;4.88;;;26.40;99.90;;;;;;5095733;28;20169;-88
2021/06/28 10:38:47;;;;;;;10.77;4.13;;;26.40;99.90;;;;;;5130476;27;20160;-88
2021/06/28 10:41:32;;;;;;;6.00;4.38;;;26.30;99.90;;;;;;5079334;28;20182;-89
2021/06/28 10:43:57;;;;;;;9.15;4.40;;;26.10;99.90;;;;;;5082366;28;20170;-89
2021/06/28 10:46:35;;;;;;;12.07;4.80;;;25.70;99.90;;;;;;5078366;28;20202;-89
2021/06/28 10:49:02;;;;;;;6.05;4.10;;;25.60;99.90;;;;;;5076674;28;20185;-88
2021/06/28 10:51:40;;;;;;;10.32;4.40;;;25.50;99.90;;;;;;5054442;28;20224;-89
2021/06/28 10:54:07;;;;;;;8.52;4.18;;;25.40;99.90;;;;;;5076194;28;20181;-90
2021/06/28 10:56:36;;;;;;;8.13;4.18;;;25.20;99.90;;;;;;5077671;28;20224;-90
2021/06/28 10:59:07;;;;;;;4.80;4.38;;;25.20;99.90;;;;;;5074550;28;20163;-89
2021/06/28 11:01:40;;;;;;;6.03;3.78;;;25.40;99.90;;;;;;5078953;28;20182;-91
2021/06/28 11:04:16;;;;;;;5.75;4.05;;;25.40;99.90;;;;;;5069836;28;20211;-90
2021/06/28 11:07:12;;;;;;;4.68;4.28;;;25.30;99.90;;;;;;5076649;28;20209;-91
2021/06/28 11:09:56;;;;;;;4.53;3.53;;;25.50;99.90;;;;;;5059197;28;20191;-90
2021/06/28 11:12:37;;;;;;;4.57;3.78;;;26.00;99.90;;;;;;5085732;28;20541;-89
2021/06/28 11:15:29;;;;;;;4.35;3.95;;;26.00;99.90;;;;;;5075334;28;20502;-90
2021/06/28 11:17:58;;;;;;;4.40;3.75;;;26.00;99.90;;;;;;5073706;28;20608;-89
2021/06/28 11:20:51;;;;;;;4.15;3.85;;;25.90;99.90;;;;;;5062962;28;20181;-90
2021/06/28 11:23:18;;;;;;;9.70;4.57;;;25.80;99.90;;;;;;5076539;28;20580;-92
2021/06/28 11:25:55;;;;;;;4.00;3.60;;;26.10;99.90;;;;;;5101583;28;20708;-90
2021/06/28 11:32:27;;;;;;;12.88;4.05;;;26.80;99.90;;;;;;4973805;28;20286;-89
2021/06/28 11:34:54;;;;;;;5.13;3.50;;;27.20;99.90;;;;;;5003363;28;20263;-82
2021/06/28 11:37:20;;;;;;;3.78;3.42;;;27.30;99.90;;;;;;5042817;28;20249;-82
2021/06/28 11:40:03;;;;;;;3.60;3.30;;;27.00;99.90;;;;;;5060343;28;20274;-90
2021/06/28 11:42:33;;;;;;;7.80;3.15;;;26.70;99.90;;;;;;5110006;28;20174;-89
2021/06/28 11:45:11;;;;;;;5.78;3.78;;;26.30;99.90;;;;;;5098689;28;20542;-91
2021/06/28 11:47:48;;;;;;;6.85;3.65;;;25.80;99.90;;;;;;5074893;28;20170;-89
2021/06/28 11:50:33;;;;;;;3.83;3.38;;;25.60;99.90;;;;;;5112443;28;20188;-90
2021/06/28 11:53:04;;;;;;;7.18;3.45;;;25.60;99.90;;;;;;5099576;28;20184;-93
2021/06/28 11:55:32;;;;;;;3.13;2.92;;;25.60;99.90;;;;;;5067438;28;20174;-91
2021/06/28 11:57:59;;;;;;;3.20;2.58;;;25.60;99.90;;;;;;5059278;28;20167;-92
2021/06/28 12:00:25;;;;;;;2.88;2.67;;;25.50;99.90;;;;;;5077597;28;20178;-92
2021/06/28 12:03:17;;;;;;;2.80;2.60;;;25.20;99.90;;;;;;5062774;28;20182;-91
2021/06/28 12:05:45;;;;;;;2.67;2.42;;;24.90;99.90;;;;;;5074372;28;20245;-88
2021/06/28 12:08:12;;;;;;;2.65;2.40;;;24.60;99.90;;;;;;5084660;28;20650;-91
2021/06/28 12:10:39;;;;;;;2.47;2.20;;;24.50;99.90;;;;;;5097615;28;20168;-92
2021/06/28 12:13:05;;;;;;;2.55;2.33;;;24.50;99.90;;;;;;5086946;28;20180;-89
2021/06/28 12:15:31;;;;;;;6.82;2.47;;;24.50;99.90;;;;;;5078489;28;20335;-92
2021/06/28 12:18:03;;;;;;;2.80;2.60;;;24.60;99.90;;;;;;5077662;28;20213;-91
2021/06/28 12:20:30;;;;;;;3.75;2.83;;;24.80;99.90;;;;;;5078862;28;20170;-90
2021/06/28 12:22:57;;;;;;;2.42;2.22;;;25.00;99.90;;;;;;5077182;28;20635;-90
2021/06/28 12:25:23;;;;;;;6.10;2.70;;;25.20;99.90;;;;;;5044896;28;20538;-90
2021/06/28 12:27:49;;;;;;;6.75;2.55;;;25.30;99.90;;;;;;5076864;28;20258;-88
2021/06/28 12:30:21;;;;;;;3.10;2.88;;;25.40;99.90;;;;;;5058934;28;20163;-86
2021/06/28 12:32:59;;;;;;;2.78;2.58;;;25.50;99.90;;;;;;5058499;28;20578;-89
2021/06/28 12:35:29;;;;;;;6.20;2.80;;;25.70;99.90;;;;;;5062898;28;20185;-86
2021/06/28 12:37:57;;;;;;;4.45;2.63;;;26.10;99.90;;;;;;5059561;28;20220;-88
2021/06/28 12:40:29;;;;;;;3.08;2.75;;;26.60;99.90;;;;;;5060090;28;20637;-88
2021/06/28 12:43:08;;;;;;;3.00;2.80;;;26.90;99.90;;;;;;5068872;28;20239;-86
2021/06/28 12:45:42;;;;;;;3.67;2.70;;;27.20;99.90;;;;;;5075360;28;20307;-87
2021/06/28 12:48:13;;;;;;;6.47;2.20;;;27.60;99.90;;;;;;5087302;28;20255;-83
2021/06/28 12:50:39;;;;;;;2.28;2.00;;;28.00;99.90;;;;;;5064494;28;20518;-83
2021/06/28 12:53:13;;;;;;;2.35;1.98;;;28.90;99.90;;;;;;5055447;28;20272;-83
2021/06/28 12:55:38;;;;;;;1.52;1.42;;;29.20;99.90;;;;;;5074047;28;20175;-83
2021/06/28 12:58:13;;;;;;;4.35;1.40;;;29.60;99.90;;;;;;5075614;28;20280;-83
2021/06/28 13:00:44;;;;;;;1.50;1.40;;;29.90;99.90;;;;;;5075289;28;20171;-83
2021/06/28 13:03:14;;;;;;;2.30;1.40;;;30.00;99.90;;;;;;5072146;28;20171;-82